createdAt,value
2018-02-21T00:02:24.212Z,102493.79
2018-02-21T00:04:51.951Z,102494.87
2018-02-21T00:07:19.672Z,102488.75
2018-02-21T00:09:47.451Z,102498.32
2018-02-21T00:12:15.168Z,102497.87
2018-02-21T00:14:42.912Z,102494.45
2018-02-21T00:17:10.655Z,102487.64
2018-02-21T00:19:38.416Z,102486.94
2018-02-21T00:22:06.179Z,102486.65
2018-02-21T00:24:33.939Z,102485.05
2018-02-21T00:27:01.713Z,102489.53
2018-02-21T00:29:29.428Z,102489.37
2018-02-21T00:31:57.167Z,102488.08
2018-02-21T00:34:24.902Z,102495.98
2018-02-21T00:36:52.672Z,102488.88
2018-02-21T00:39:20.388Z,102495.20
2018-02-21T00:41:48.134Z,102492.25
2018-02-21T00:44:15.965Z,102491.03
2018-02-21T00:46:43.731Z,102490.19
2018-02-21T00:49:11.491Z,102492.55
2018-02-21T00:51:39.230Z,102491.56
2018-02-21T00:56:33.972Z,102493.80
2018-02-21T00:59:01.736Z,102500.43
2018-02-21T01:01:29.504Z,102499.88
2018-02-21T01:03:57.247Z,102495.88
2018-02-21T01:06:25.035Z,102500.06
2018-02-21T01:08:52.771Z,102504.09
2018-02-21T01:11:20.492Z,102499.27
2018-02-21T01:13:48.323Z,102502.62
2018-02-21T01:16:16.040Z,102497.75
2018-02-21T01:18:43.779Z,102500.85
2018-02-21T01:21:11.496Z,102498.45
2018-02-21T01:23:39.288Z,102491.86
2018-02-21T01:26:07.012Z,102503.88
2018-02-21T01:28:34.759Z,102502.38
2018-02-21T01:31:02.486Z,102501.19
2018-02-21T01:33:30.252Z,102498.70
2018-02-21T01:35:58.013Z,102490.23
2018-02-21T01:38:25.775Z,102495.72
2018-02-21T01:40:53.544Z,102496.39
2018-02-21T01:43:21.259Z,102487.42
2018-02-21T01:45:49.067Z,102489.88
2018-02-21T01:48:16.794Z,102497.84
2018-02-21T01:50:52.397Z,102499.41
2018-02-21T01:53:20.142Z,102499.14
2018-02-21T01:55:47.906Z,102498.09
2018-02-21T01:58:15.633Z,102496.55
2018-02-21T02:00:43.543Z,102499.77
2018-02-21T02:03:11.268Z,102498.83
2018-02-21T02:05:39.084Z,102494.56
2018-02-21T02:08:06.812Z,102492.25
2018-02-21T02:10:34.621Z,102489.05
2018-02-21T02:13:02.363Z,102493.94
2018-02-21T02:15:30.084Z,102484.16
2018-02-21T02:17:57.872Z,102490.25
2018-02-21T02:20:25.601Z,102489.38
2018-02-21T02:22:53.445Z,102486.80
2018-02-21T02:25:21.160Z,102480.89
2018-02-21T02:27:48.904Z,102479.08
2018-02-21T02:30:16.630Z,102476.98
2018-02-21T02:32:44.373Z,102481.20
2018-02-21T02:35:12.096Z,102480.21
2018-02-21T02:37:39.924Z,102474.63
2018-02-21T02:40:07.639Z,102479.58
2018-02-21T02:42:35.461Z,102477.52
2018-02-21T02:45:03.229Z,102471.12
2018-02-21T02:47:30.948Z,102473.52
2018-02-21T02:49:58.753Z,102467.93
2018-02-21T02:52:26.629Z,102464.83
2018-02-21T02:54:54.372Z,102467.77
2018-02-21T02:57:22.148Z,102475.45
2018-02-21T03:02:16.933Z,102468.83
2018-02-21T03:04:44.728Z,102480.87
2018-02-21T03:07:12.444Z,102472.58
2018-02-21T03:09:40.268Z,102478.20
2018-02-21T03:12:08.001Z,102484.66
2018-02-21T03:14:35.740Z,102486.81
2018-02-21T03:17:03.565Z,102482.28
2018-02-21T03:19:31.308Z,102488.79
2018-02-21T03:21:59.083Z,102483.33
2018-02-21T03:24:26.847Z,102484.44
2018-02-21T03:26:54.588Z,102486.91
2018-02-21T03:29:22.308Z,102472.88
2018-02-21T03:31:50.152Z,102482.50
2018-02-21T03:34:17.908Z,102489.67
2018-02-21T03:36:45.644Z,102487.83
2018-02-21T03:39:13.439Z,102491.10
2018-02-21T03:41:41.212Z,102489.33
2018-02-21T03:44:08.934Z,102492.25
2018-02-21T03:46:36.741Z,102492.69
2018-02-21T03:49:04.511Z,102499.87
2018-02-21T03:51:32.268Z,102504.63
2018-02-21T03:53:59.992Z,102502.91
2018-02-21T03:56:27.738Z,102501.80
2018-02-21T03:58:55.470Z,102507.45
2018-02-21T04:01:23.332Z,102508.95
2018-02-21T04:03:51.096Z,102516.12
2018-02-21T04:06:18.866Z,102514.55
2018-02-21T04:08:46.625Z,102512.61
2018-02-21T04:11:14.392Z,102517.75
2018-02-21T04:13:42.161Z,102521.19
2018-02-21T04:16:09.881Z,102521.97
2018-02-21T04:18:37.683Z,102529.59
2018-02-21T04:21:05.400Z,102524.86
2018-02-21T04:23:33.212Z,102524.63
2018-02-21T04:26:00.982Z,102523.30
2018-02-21T04:28:28.729Z,102521.77
2018-02-21T04:30:56.444Z,102527.07
2018-02-21T04:33:24.199Z,102525.89
2018-02-21T04:35:51.944Z,102524.63
2018-02-21T04:38:19.663Z,102529.70
2018-02-21T04:40:47.408Z,102535.69
2018-02-21T04:43:15.231Z,102534.47
2018-02-21T04:45:42.973Z,102534.86
2018-02-21T04:48:10.733Z,102533.65
2018-02-21T04:50:38.528Z,102537.84
2018-02-21T04:53:06.248Z,102534.41
2018-02-21T04:55:39.604Z,102535.23
2018-02-21T04:58:12.954Z,102533.59
2018-02-21T05:00:40.763Z,102535.63
2018-02-21T05:03:08.524Z,102538.52
2018-02-21T05:05:36.283Z,102534.48
2018-02-21T05:08:04.004Z,102535.18
2018-02-21T05:10:31.745Z,102535.24
2018-02-21T05:12:59.465Z,102529.50
2018-02-21T05:15:27.345Z,102531.47
2018-02-21T05:17:55.068Z,102530.93
2018-02-21T05:20:22.877Z,102525.05
2018-02-21T05:22:50.639Z,102522.67
2018-02-21T05:25:18.356Z,102529.69
2018-02-21T05:27:46.139Z,102525.72
2018-02-21T05:30:13.904Z,102523.06
2018-02-21T05:32:41.669Z,102515.72
2018-02-21T05:35:09.400Z,102524.16
2018-02-21T05:37:37.140Z,102522.83
2018-02-21T05:40:04.892Z,102517.97
2018-02-21T05:42:32.666Z,102526.04
2018-02-21T05:45:00.433Z,102525.81
2018-02-21T05:47:28.190Z,102529.56
2018-02-21T05:49:55.965Z,102528.52
2018-02-21T05:52:23.709Z,102528.45
2018-02-21T05:54:51.495Z,102535.19
2018-02-21T05:57:19.352Z,102533.81
2018-02-21T05:59:47.171Z,102530.11
2018-02-21T06:02:14.988Z,102533.44
2018-02-21T06:04:42.757Z,102540.77
2018-02-21T06:07:10.484Z,102542.65
2018-02-21T06:09:38.284Z,102537.63
2018-02-21T06:12:06.011Z,102541.83
2018-02-21T06:14:33.764Z,102551.89
2018-02-21T06:17:01.484Z,102548.55
2018-02-21T06:19:29.232Z,102551.89
2018-02-21T06:21:57.829Z,102549.34
2018-02-21T06:24:25.568Z,102544.14
2018-02-21T06:26:53.361Z,102547.70
2018-02-21T06:29:21.104Z,102547.48
2018-02-21T06:31:48.896Z,102544.05
2018-02-21T06:34:16.665Z,102549.42
2018-02-21T06:36:44.415Z,102544.84
2018-02-21T06:39:12.188Z,102552.25
2018-02-21T06:41:39.925Z,102552.19
2018-02-21T06:44:07.641Z,102551.36
2018-02-21T06:46:35.476Z,102542.84
2018-02-21T06:49:03.281Z,102544.05
2018-02-21T06:51:31.108Z,102552.63
2018-02-21T06:53:58.881Z,102550.25
2018-02-21T06:56:26.624Z,102550.09
2018-02-21T06:58:54.412Z,102550.88
2018-02-21T07:01:22.165Z,102551.64
2018-02-21T07:03:49.885Z,102557.45
2018-02-21T07:06:17.629Z,102561.77
2018-02-21T07:08:45.365Z,102568.51
2018-02-21T07:11:13.108Z,102569.68
2018-02-21T07:13:40.828Z,102570.41
2018-02-21T07:16:08.633Z,102570.95
2018-02-21T07:18:36.578Z,102572.50
2018-02-21T07:21:04.363Z,102574.78
2018-02-21T07:23:32.160Z,102576.27
2018-02-21T07:25:59.933Z,102585.83
2018-02-21T07:28:27.692Z,102585.56
2018-02-21T07:30:55.467Z,102581.34
2018-02-21T07:33:23.235Z,102587.15
2018-02-21T07:35:50.988Z,102586.59
2018-02-21T07:38:18.756Z,102585.84
2018-02-21T07:40:46.485Z,102589.66
2018-02-21T07:43:14.228Z,102582.50
2018-02-21T07:45:42.055Z,102578.48
2018-02-21T07:48:09.804Z,102581.56
2018-02-21T07:50:37.533Z,102580.63
2018-02-21T07:53:05.284Z,102586.77
2018-02-21T07:55:33.077Z,102580.59
2018-02-21T07:58:00.849Z,102576.56
2018-02-21T08:00:28.577Z,102578.97
2018-02-21T08:02:56.405Z,102575.00
2018-02-21T08:05:24.171Z,102573.46
2018-02-21T08:07:51.940Z,102574.59
2018-02-21T08:10:19.667Z,102576.78
2018-02-21T08:12:47.392Z,102578.72
2018-02-21T08:15:15.145Z,102575.91
2018-02-21T08:17:42.904Z,102579.42
2018-02-21T08:20:10.653Z,102575.27
2018-02-21T08:22:38.495Z,102580.05
2018-02-21T08:25:06.241Z,102587.48
2018-02-21T08:27:34.060Z,102584.66
2018-02-21T08:30:01.829Z,102590.77
2018-02-21T08:32:29.555Z,102595.27
2018-02-21T08:34:57.320Z,102592.13
2018-02-21T08:37:25.036Z,102590.73
2018-02-21T08:39:52.851Z,102585.69
2018-02-21T08:42:20.648Z,102594.92
2018-02-21T08:44:48.412Z,102598.12
2018-02-21T08:47:16.180Z,102596.86
2018-02-21T08:49:43.949Z,102598.58
2018-02-21T08:52:11.606Z,102600.20
2018-02-21T08:54:39.372Z,102600.06
2018-02-21T08:57:07.088Z,102605.86
2018-02-21T08:59:34.729Z,102598.03
2018-02-21T09:02:02.394Z,102595.71
2018-02-21T09:04:30.132Z,102603.75
2018-02-21T09:06:57.860Z,102603.34
2018-02-21T09:09:25.552Z,102602.83
2018-02-21T09:11:53.316Z,102600.05
2018-02-21T09:14:20.991Z,102594.72
2018-02-21T09:16:48.753Z,102600.31
2018-02-21T09:19:16.384Z,102600.14
2018-02-21T09:21:44.045Z,102598.20
2018-02-21T09:24:11.736Z,102594.83
2018-02-21T09:26:39.500Z,102603.36
2018-02-21T09:29:07.287Z,102593.91
2018-02-21T09:31:35.000Z,102604.67
2018-02-21T09:34:02.636Z,102604.53
2018-02-21T09:36:30.280Z,102607.34
2018-02-21T09:38:58.029Z,102605.96
2018-02-21T09:41:25.784Z,102610.09
2018-02-21T09:43:53.597Z,102603.30
2018-02-21T09:46:21.320Z,102599.94
2018-02-21T09:48:49.049Z,102605.10
2018-02-21T09:51:16.746Z,102604.30
2018-02-21T09:53:44.408Z,102609.33
2018-02-21T09:56:12.057Z,102600.46
2018-02-21T09:58:39.724Z,102606.25
2018-02-21T10:01:07.366Z,102606.61
2018-02-21T10:03:35.025Z,102613.80
2018-02-21T10:06:02.720Z,102615.53
2018-02-21T10:08:30.484Z,102612.55
2018-02-21T10:10:58.219Z,102607.90
2018-02-21T10:13:25.912Z,102608.41
2018-02-21T10:15:53.579Z,102605.54
2018-02-21T10:18:21.278Z,102603.42
2018-02-21T10:20:49.076Z,102600.94
2018-02-21T10:23:16.770Z,102605.72
2018-02-21T10:25:44.436Z,102607.94
2018-02-21T10:28:12.097Z,102610.42
2018-02-21T10:30:39.756Z,102611.98
2018-02-21T10:33:07.423Z,102608.29
2018-02-21T10:35:35.088Z,102612.07
2018-02-21T10:38:02.724Z,102612.52
2018-02-21T10:40:30.482Z,102612.03
2018-02-21T10:42:58.111Z,102617.13
2018-02-21T10:45:25.835Z,102616.17
2018-02-21T10:47:53.484Z,102611.47
2018-02-21T10:50:21.164Z,102608.50
2018-02-21T10:52:48.835Z,102614.04
2018-02-21T10:55:16.593Z,102616.13
2018-02-21T10:57:44.256Z,102614.28
2018-02-21T11:00:11.916Z,102616.73
2018-02-21T11:02:39.580Z,102616.73
2018-02-21T11:05:07.212Z,102611.11
2018-02-21T11:07:36.449Z,102615.77
2018-02-21T11:10:04.108Z,102609.70
2018-02-21T11:12:31.868Z,102613.52
2018-02-21T11:14:59.538Z,102616.53
2018-02-21T11:17:27.229Z,102615.20
2018-02-21T11:19:54.961Z,102612.19
2018-02-21T11:22:22.724Z,102616.09
2018-02-21T11:24:50.414Z,102612.39
2018-02-21T11:27:18.084Z,102607.45
2018-02-21T11:29:45.816Z,102611.14
2018-02-21T11:32:13.477Z,102608.77
2018-02-21T11:34:41.214Z,102611.30
2018-02-21T11:37:08.909Z,102607.59
2018-02-21T11:39:36.557Z,102605.19
2018-02-21T11:42:04.233Z,102606.53
2018-02-21T11:44:32.004Z,102605.03
2018-02-21T11:46:59.645Z,102597.45
2018-02-21T11:49:27.308Z,102603.27
2018-02-21T11:51:54.955Z,102603.06
2018-02-21T11:54:22.614Z,102601.60
2018-02-21T11:56:50.256Z,102600.51
2018-02-21T11:59:17.976Z,102599.81
2018-02-21T12:01:45.616Z,102595.27
2018-02-21T12:04:13.278Z,102594.69
2018-02-21T12:06:40.964Z,102592.23
2018-02-21T12:09:08.633Z,102594.62
2018-02-21T12:11:36.268Z,102602.75
2018-02-21T12:14:03.933Z,102598.05
2018-02-21T12:16:31.576Z,102594.03
2018-02-21T12:18:59.280Z,102591.34
2018-02-21T12:21:26.939Z,102592.19
2018-02-21T12:23:54.708Z,102594.36
2018-02-21T12:26:22.369Z,102597.02
2018-02-21T12:28:50.136Z,102590.13
2018-02-21T12:31:17.768Z,102596.94
2018-02-21T12:33:45.454Z,102586.27
2018-02-21T12:36:13.124Z,102592.34
2018-02-21T12:38:40.765Z,102590.88
2018-02-21T12:41:14.003Z,102589.41
2018-02-21T12:43:41.648Z,102584.71
2018-02-21T12:46:09.307Z,102583.83
2018-02-21T12:48:36.968Z,102585.73
2018-02-21T12:51:04.806Z,102585.50
2018-02-21T12:53:32.500Z,102592.23
2018-02-21T12:56:00.264Z,102586.05
2018-02-21T12:58:27.929Z,102587.06
2018-02-21T13:00:55.700Z,102583.34
2018-02-21T13:03:23.357Z,102590.47
2018-02-21T13:05:51.087Z,102585.64
2018-02-21T13:08:18.970Z,102585.20
2018-02-21T13:10:46.641Z,102580.50
2018-02-21T13:13:14.284Z,102580.02
2018-02-21T13:15:42.144Z,102577.08
2018-02-21T13:18:09.793Z,102576.02
2018-02-21T13:20:37.433Z,102570.11
2018-02-21T13:23:05.102Z,102565.73
2018-02-21T13:25:32.740Z,102570.36
2018-02-21T13:28:00.498Z,102564.17
2018-02-21T13:30:28.165Z,102564.38
2018-02-21T13:32:55.828Z,102561.58
2018-02-21T13:35:23.468Z,102551.14
2018-02-21T13:37:51.134Z,102554.33
2018-02-21T13:40:18.773Z,102550.17
2018-02-21T13:42:46.436Z,102550.37
2018-02-21T13:45:14.104Z,102551.11
2018-02-21T13:47:41.800Z,102544.63
2018-02-21T13:50:09.459Z,102546.00
2018-02-21T13:52:37.237Z,102540.67
2018-02-21T13:55:04.881Z,102541.16
2018-02-21T13:57:32.540Z,102539.36
2018-02-21T14:00:00.223Z,102534.70
2018-02-21T14:02:27.880Z,102537.38
2018-02-21T14:04:55.614Z,102537.63
2018-02-21T14:07:23.299Z,102534.10
2018-02-21T14:09:50.952Z,102532.74
2018-02-21T14:12:18.642Z,102534.77
2018-02-21T14:14:46.304Z,102532.04
2018-02-21T14:17:13.941Z,102529.20
2018-02-21T14:19:41.624Z,102532.73
2018-02-21T14:22:09.256Z,102533.64
2018-02-21T14:24:36.928Z,102537.45
2018-02-21T14:27:04.604Z,102534.34
2018-02-21T14:29:32.279Z,102531.02
2018-02-21T14:31:59.945Z,102538.37
2018-02-21T14:34:27.575Z,102538.92
2018-02-21T14:36:55.232Z,102530.42
2018-02-21T14:39:22.877Z,102538.47
2018-02-21T14:41:50.537Z,102536.56
2018-02-21T14:44:18.215Z,102532.23
2018-02-21T14:46:45.885Z,102536.17
2018-02-21T14:49:13.576Z,102533.35
2018-02-21T14:51:41.228Z,102536.53
2018-02-21T14:54:08.859Z,102534.56
2018-02-21T14:56:36.534Z,102532.16
2018-02-21T14:59:04.229Z,102536.66
2018-02-21T15:01:31.889Z,102529.87
2018-02-21T15:03:59.524Z,102534.41
2018-02-21T15:06:27.221Z,102536.25
2018-02-21T15:08:54.861Z,102533.47
2018-02-21T15:11:22.549Z,102537.97
2018-02-21T15:13:50.213Z,102541.13
2018-02-21T15:16:23.574Z,102540.48
2018-02-21T15:18:51.234Z,102537.27
2018-02-21T15:21:18.877Z,102544.86
2018-02-21T15:23:46.541Z,102543.93
2018-02-21T15:26:14.261Z,102540.67
2018-02-21T15:28:41.920Z,102545.16
2018-02-21T15:31:09.592Z,102548.36
2018-02-21T15:33:37.252Z,102545.47
2018-02-21T15:36:04.917Z,102543.58
2018-02-21T15:38:32.696Z,102542.61
2018-02-21T15:41:00.333Z,102544.58
2018-02-21T15:43:27.996Z,102545.44
2018-02-21T15:45:55.636Z,102544.27
2018-02-21T15:48:23.286Z,102543.00
2018-02-21T15:50:50.948Z,102550.45
2018-02-21T15:53:18.649Z,102546.84
2018-02-21T15:55:46.313Z,102542.69
2018-02-21T15:58:13.981Z,102549.20
2018-02-21T16:00:41.740Z,102548.47
2018-02-21T16:03:09.384Z,102547.69
2018-02-21T16:05:37.045Z,102544.78
2018-02-21T16:08:04.728Z,102544.00
2018-02-21T16:10:32.392Z,102547.19
2018-02-21T16:13:00.064Z,102544.28
2018-02-21T16:15:27.819Z,102549.20
2018-02-21T16:17:55.488Z,102542.57
2018-02-21T16:20:23.249Z,102553.94
2018-02-21T16:22:50.916Z,102551.16
2018-02-21T16:25:18.553Z,102553.55
2018-02-21T16:27:46.235Z,102541.39
2018-02-21T16:30:13.970Z,102554.05
2018-02-21T16:32:41.632Z,102562.32
2018-02-21T16:35:09.335Z,102563.46
2018-02-21T16:37:37.101Z,102562.00
2018-02-21T16:40:04.756Z,102565.59
2018-02-21T16:42:32.524Z,102562.32
2018-02-21T16:45:00.165Z,102558.97
2018-02-21T16:47:27.849Z,102563.03
2018-02-21T16:49:55.517Z,102558.05
2018-02-21T16:52:23.276Z,102563.61
2018-02-21T16:54:50.950Z,102565.37
2018-02-21T16:57:18.704Z,102574.83
2018-02-21T16:59:46.340Z,102573.14
2018-02-21T17:02:14.030Z,102573.31
2018-02-21T17:04:41.672Z,102579.02
2018-02-21T17:07:09.323Z,102578.34
2018-02-21T17:09:37.016Z,102580.28
2018-02-21T17:12:04.680Z,102588.19
2018-02-21T17:14:32.348Z,102599.48
2018-02-21T17:17:00.013Z,102595.95
2018-02-21T17:19:27.772Z,102595.45
2018-02-21T17:21:56.005Z,102595.33
2018-02-21T17:24:23.717Z,102602.34
2018-02-21T17:26:51.372Z,102597.48
2018-02-21T17:29:19.139Z,102599.72
2018-02-21T17:31:46.780Z,102598.61
2018-02-21T17:34:14.436Z,102603.36
2018-02-21T17:36:42.128Z,102602.16
2018-02-21T17:39:09.789Z,102607.93
2018-02-21T17:41:37.428Z,102609.77
2018-02-21T17:44:05.118Z,102604.86
2018-02-21T17:46:32.884Z,102602.03
2018-02-21T17:49:00.648Z,102601.34
2018-02-21T17:51:28.289Z,102605.89
2018-02-21T17:53:56.081Z,102606.88
2018-02-21T17:56:23.740Z,102603.25
2018-02-21T17:58:51.384Z,102605.49
2018-02-21T18:01:19.169Z,102609.93
2018-02-21T18:03:46.839Z,102606.30
2018-02-21T18:06:14.496Z,102608.14
2018-02-21T18:08:42.140Z,102613.91
2018-02-21T18:11:09.824Z,102611.06
2018-02-21T18:13:37.485Z,102613.69
2018-02-21T18:16:05.145Z,102614.33
2018-02-21T18:18:32.785Z,102617.98
2018-02-21T18:21:00.476Z,102613.46
2018-02-21T18:23:28.121Z,102619.09
2018-02-21T18:25:55.782Z,102620.91
2018-02-21T18:28:23.529Z,102626.39
2018-02-21T18:30:51.323Z,102628.96
2018-02-21T18:33:19.024Z,102630.78
2018-02-21T18:35:46.761Z,102634.67
2018-02-21T18:38:14.520Z,102629.95
2018-02-21T18:40:42.181Z,102635.12
2018-02-21T18:43:09.828Z,102637.25
2018-02-21T18:45:37.681Z,102636.41
2018-02-21T18:48:05.349Z,102640.84
2018-02-21T18:50:33.069Z,102641.33
2018-02-21T18:53:00.913Z,102646.45
2018-02-21T18:55:28.639Z,102638.33
2018-02-21T18:57:56.394Z,102651.94
2018-02-21T19:00:24.100Z,102648.27
2018-02-21T19:02:51.841Z,102643.35
2018-02-21T19:05:19.635Z,102639.66
2018-02-21T19:07:47.431Z,102641.04
2018-02-21T19:10:15.268Z,102638.62
2018-02-21T19:12:43.105Z,102640.39
2018-02-21T19:15:10.865Z,102648.69
2018-02-21T19:17:39.038Z,102646.22
2018-02-21T19:20:06.840Z,102642.48
2018-02-21T19:22:34.565Z,102644.78
2018-02-21T19:25:02.308Z,102644.83
2018-02-21T19:27:30.039Z,102639.71
2018-02-21T19:29:57.776Z,102647.41
2018-02-21T19:32:25.504Z,102646.52
2018-02-21T19:34:53.248Z,102643.25
2018-02-21T19:37:20.981Z,102646.50
2018-02-21T19:39:48.824Z,102654.05
2018-02-21T19:42:16.543Z,102654.58
2018-02-21T19:44:44.387Z,102655.30
2018-02-21T19:47:12.104Z,102659.77
2018-02-21T19:49:39.886Z,102658.58
2018-02-21T19:52:07.608Z,102663.03
2018-02-21T19:54:35.452Z,102666.22
2018-02-21T19:57:03.172Z,102659.63
2018-02-21T19:59:30.925Z,102662.81
2018-02-21T20:01:58.743Z,102663.87
2018-02-21T20:04:26.508Z,102664.56
2018-02-21T20:06:54.250Z,102670.30
2018-02-21T20:09:21.972Z,102667.19
2018-02-21T20:11:49.804Z,102662.32
2018-02-21T20:14:17.568Z,102669.91
2018-02-21T20:16:45.344Z,102668.55
2018-02-21T20:19:13.070Z,102672.27
2018-02-21T20:21:40.844Z,102678.88
2018-02-21T20:24:08.637Z,102685.11
2018-02-21T20:26:36.504Z,102682.44
2018-02-21T20:29:04.269Z,102673.36
2018-02-21T20:31:32.015Z,102677.87
2018-02-21T20:33:59.792Z,102681.05
2018-02-21T20:36:27.545Z,102685.83
2018-02-21T20:38:55.395Z,102691.45
2018-02-21T20:41:23.197Z,102689.41
2018-02-21T20:43:50.964Z,102691.22
2018-02-21T20:46:18.728Z,102693.20
2018-02-21T20:48:46.468Z,102695.81
2018-02-21T20:51:14.195Z,102704.44
2018-02-21T20:53:41.977Z,102700.29
2018-02-21T20:56:09.700Z,102704.47
2018-02-21T20:58:37.450Z,102705.24
2018-02-21T21:01:05.179Z,102706.78
2018-02-21T21:03:32.980Z,102707.14
2018-02-21T21:06:00.704Z,102703.73
2018-02-21T21:08:28.478Z,102704.06
2018-02-21T21:10:56.277Z,102702.64
2018-02-21T21:13:24.036Z,102700.26
2018-02-21T21:15:51.752Z,102698.84
2018-02-21T21:18:19.497Z,102699.84
2018-02-21T21:20:47.331Z,102699.60
2018-02-21T21:23:15.096Z,102690.82
2018-02-21T21:25:42.828Z,102691.86
2018-02-21T21:28:10.587Z,102691.53
2018-02-21T21:30:38.320Z,102691.73
2018-02-21T21:33:06.037Z,102691.99
2018-02-21T21:35:33.790Z,102682.97
2018-02-21T21:38:01.593Z,102690.50
2018-02-21T21:40:29.336Z,102689.58
2018-02-21T21:42:57.048Z,102686.66
2018-02-21T21:45:24.879Z,102689.61
2018-02-21T21:47:52.592Z,102686.19
2018-02-21T21:50:20.313Z,102690.33
2018-02-21T21:52:48.036Z,102685.38
2018-02-21T21:55:15.786Z,102685.13
2018-02-21T21:57:43.508Z,102687.34
2018-02-21T22:00:11.274Z,102682.93
2018-02-21T22:02:38.998Z,102680.77
2018-02-21T22:05:06.725Z,102680.27
2018-02-21T22:07:34.573Z,102682.17
2018-02-21T22:10:02.336Z,102683.69
2018-02-21T22:12:30.101Z,102683.05
2018-02-21T22:14:57.868Z,102680.92
2018-02-21T22:17:25.737Z,102674.66
2018-02-21T22:19:53.658Z,102674.17
2018-02-21T22:22:21.398Z,102680.17
2018-02-21T22:24:49.121Z,102680.13
2018-02-21T22:27:16.856Z,102680.25
2018-02-21T22:29:44.572Z,102680.38
2018-02-21T22:32:12.320Z,102675.90
2018-02-21T22:34:40.093Z,102678.92
2018-02-21T22:37:07.952Z,102685.94
2018-02-21T22:39:35.673Z,102685.94
2018-02-21T22:42:03.392Z,102686.44
2018-02-21T22:44:31.137Z,102683.14
2018-02-21T22:46:58.861Z,102680.65
2018-02-21T22:49:26.671Z,102686.52
2018-02-21T22:51:54.449Z,102689.42
2018-02-21T22:54:22.192Z,102694.53
2018-02-21T22:56:49.911Z,102690.08
2018-02-21T22:59:17.660Z,102689.93
2018-02-21T23:01:45.380Z,102694.31
2018-02-21T23:04:13.164Z,102691.91
2018-02-21T23:06:40.936Z,102695.69
2018-02-21T23:09:08.706Z,102694.47
2018-02-21T23:11:36.469Z,102696.24
2018-02-21T23:14:04.233Z,102692.06
2018-02-21T23:16:31.992Z,102690.40
2018-02-21T23:18:59.707Z,102690.95
2018-02-21T23:21:27.444Z,102694.78
2018-02-21T23:23:55.164Z,102692.23
2018-02-21T23:26:22.957Z,102686.23
2018-02-21T23:28:50.711Z,102688.23
2018-02-21T23:31:18.481Z,102691.59
2018-02-21T23:33:46.201Z,102691.08
2018-02-21T23:36:14.012Z,102698.73
2018-02-21T23:38:41.727Z,102694.91
2018-02-21T23:41:09.557Z,102700.02
2018-02-21T23:43:37.281Z,102696.63
2018-02-21T23:46:04.995Z,102695.89
2018-02-21T23:48:32.889Z,102694.61
2018-02-21T23:51:00.674Z,102699.78
2018-02-21T23:53:28.473Z,102704.20
2018-02-21T23:55:56.187Z,102696.71
2018-02-21T23:58:23.935Z,102695.97
